createdAt,value
2022-10-31T00:01:48.107Z,13.6
2022-10-31T00:04:35.665Z,13.6
2022-10-31T00:07:23.406Z,13.5
2022-10-31T00:10:12.021Z,13.5
2022-10-31T00:13:00.171Z,13.5
2022-10-31T00:15:47.959Z,13.5
2022-10-31T00:18:35.554Z,13.5
2022-10-31T00:21:23.384Z,13.5
2022-10-31T00:24:12.321Z,13.4
2022-10-31T00:27:00.082Z,13.4
2022-10-31T00:29:47.680Z,13.5
2022-10-31T00:32:35.239Z,13.5
2022-10-31T00:35:22.908Z,13.4
2022-10-31T00:38:11.717Z,13.4
2022-10-31T00:40:59.179Z,13.4
2022-10-31T00:43:47.259Z,13.4
2022-10-31T00:46:35.227Z,13.4
2022-10-31T00:49:23.216Z,13.4
2022-10-31T00:52:11.880Z,13.3
2022-10-31T00:54:59.500Z,13.3
2022-10-31T00:57:47.198Z,13.3
2022-10-31T01:00:35.495Z,13.3
2022-10-31T01:03:23.396Z,13.3
2022-10-31T01:06:14.410Z,13.2
2022-10-31T01:09:02.074Z,13.2
2022-10-31T01:11:49.767Z,13.2
2022-10-31T01:14:37.262Z,13.2
2022-10-31T01:17:28.383Z,13.1
2022-10-31T01:20:15.848Z,13.1
2022-10-31T01:23:03.980Z,13.1
2022-10-31T01:25:51.464Z,13.1
2022-10-31T01:28:48.489Z,13.1
2022-10-31T01:31:38.414Z,13.1
2022-10-31T01:34:26.507Z,13.1
2022-10-31T01:37:19.122Z,13.1
2022-10-31T01:40:06.738Z,13
2022-10-31T01:42:55.720Z,13
2022-10-31T01:45:43.504Z,13
2022-10-31T01:48:37.263Z,13
2022-10-31T01:51:27.573Z,12.9
2022-10-31T01:54:18.978Z,12.9
2022-10-31T01:57:10.344Z,12.9
2022-10-31T02:00:00.709Z,12.9
2022-10-31T02:02:53.740Z,12.9
2022-10-31T02:05:41.515Z,12.8
2022-10-31T02:08:29.670Z,12.8
2022-10-31T02:11:20.052Z,12.9
2022-10-31T02:14:08.392Z,12.8
2022-10-31T02:16:56.446Z,12.8
2022-10-31T02:19:44.358Z,12.8
2022-10-31T02:22:40.954Z,12.8
2022-10-31T02:25:48.251Z,12.7
2022-10-31T02:28:54.830Z,12.7
2022-10-31T02:32:03.020Z,12.7
2022-10-31T02:35:00.996Z,12.7
2022-10-31T02:37:56.223Z,12.7
2022-10-31T02:40:55.116Z,12.7
2022-10-31T02:44:00.581Z,12.7
2022-10-31T02:46:55.306Z,12.6
2022-10-31T02:49:49.781Z,12.6
2022-10-31T02:52:45.340Z,12.6
2022-10-31T02:55:36.744Z,12.6
2022-10-31T02:58:36.979Z,12.6
2022-10-31T03:01:28.639Z,12.6
2022-10-31T03:04:34.958Z,12.5
2022-10-31T03:07:36.306Z,12.5
2022-10-31T03:10:31.200Z,12.5
2022-10-31T03:13:27.746Z,12.5
2022-10-31T03:16:21.809Z,12.5
2022-10-31T03:19:15.564Z,12.5
2022-10-31T03:22:09.455Z,12.5
2022-10-31T03:25:03.723Z,12.5
2022-10-31T03:27:53.613Z,12.4
2022-10-31T03:30:42.476Z,12.4
2022-10-31T03:33:32.847Z,12.5
2022-10-31T03:36:24.161Z,12.5
2022-10-31T03:39:14.568Z,12.5
2022-10-31T03:42:05.420Z,12.5
2022-10-31T03:44:57.488Z,12.5
2022-10-31T03:47:49.982Z,12.5
2022-10-31T03:50:39.203Z,12.5
2022-10-31T03:53:37.006Z,12.5
2022-10-31T03:56:30.925Z,12.5
2022-10-31T03:59:22.244Z,12.4
2022-10-31T04:02:16.814Z,12.5
2022-10-31T04:05:11.295Z,12.4
2022-10-31T04:08:01.585Z,12.4
2022-10-31T04:10:53.905Z,12.4
2022-10-31T04:13:43.577Z,12.4
2022-10-31T04:16:34.378Z,12.4
2022-10-31T04:19:22.065Z,12.4
2022-10-31T04:22:10.653Z,12.4
2022-10-31T04:24:58.394Z,12.4
2022-10-31T04:27:46.066Z,12.3
2022-10-31T04:30:33.510Z,12.3
2022-10-31T04:33:21.033Z,12.3
2022-10-31T04:36:09.205Z,12.2
2022-10-31T04:38:56.928Z,12.2
2022-10-31T04:41:44.447Z,12.2
2022-10-31T04:44:31.996Z,12.2
2022-10-31T04:47:19.561Z,12.2
2022-10-31T04:50:07.095Z,12.2
2022-10-31T04:52:55.474Z,12.1
2022-10-31T04:55:43.376Z,12.2
2022-10-31T04:58:31.085Z,12.1
2022-10-31T05:01:18.801Z,12.1
2022-10-31T05:04:06.492Z,12.1
2022-10-31T05:06:54.141Z,12.1
2022-10-31T05:09:41.595Z,12.1
2022-10-31T05:12:29.242Z,12.1
2022-10-31T05:15:16.831Z,12
2022-10-31T05:18:06.067Z,12
2022-10-31T05:20:53.906Z,12
2022-10-31T05:23:45.855Z,12
2022-10-31T05:26:35.956Z,11.9
2022-10-31T05:29:23.713Z,11.9
2022-10-31T05:32:12.384Z,11.9
2022-10-31T05:35:00.314Z,11.9
2022-10-31T05:37:48.328Z,11.9
2022-10-31T05:40:36.338Z,11.9
2022-10-31T05:43:24.170Z,11.9
2022-10-31T05:46:12.515Z,11.9
2022-10-31T05:49:01.776Z,11.9
2022-10-31T05:51:50.397Z,11.9
2022-10-31T05:54:37.958Z,11.9
2022-10-31T05:57:26.098Z,11.8
2022-10-31T06:00:15.431Z,11.9
2022-10-31T06:03:03.309Z,11.9
2022-10-31T06:05:55.217Z,11.9
2022-10-31T06:08:43.101Z,11.9
2022-10-31T06:11:30.598Z,12
2022-10-31T06:14:18.261Z,12
2022-10-31T06:17:05.828Z,12
2022-10-31T06:19:53.359Z,12
2022-10-31T06:22:40.937Z,12
2022-10-31T06:25:28.492Z,12
2022-10-31T06:28:15.924Z,12
2022-10-31T06:31:03.995Z,12
2022-10-31T06:33:51.696Z,12
2022-10-31T06:36:39.267Z,12
2022-10-31T06:39:27.242Z,12.1
2022-10-31T06:42:14.763Z,12.1
2022-10-31T06:45:02.675Z,12.2
2022-10-31T06:48:10.818Z,12.2
2022-10-31T06:50:59.797Z,12.2
2022-10-31T06:53:47.967Z,12.3
2022-10-31T06:56:35.687Z,12.3
2022-10-31T06:59:23.793Z,12.4
2022-10-31T07:02:12.577Z,12.4
2022-10-31T07:05:00.367Z,12.5
2022-10-31T07:07:47.923Z,12.5
2022-10-31T07:10:40.691Z,12.6
2022-10-31T07:13:29.546Z,12.6
2022-10-31T07:16:17.232Z,12.6
2022-10-31T07:19:04.780Z,12.6
2022-10-31T07:21:52.470Z,12.7
2022-10-31T07:24:39.997Z,12.7
2022-10-31T07:27:27.628Z,12.8
2022-10-31T07:30:20.987Z,12.8
2022-10-31T07:33:08.709Z,12.9
2022-10-31T07:35:56.347Z,12.9
2022-10-31T07:38:44.050Z,13
2022-10-31T07:41:31.586Z,13.1
2022-10-31T07:44:19.189Z,13.1
2022-10-31T07:47:06.810Z,13.1
2022-10-31T07:49:54.386Z,13.2
2022-10-31T07:52:42.045Z,13.2
2022-10-31T07:55:29.987Z,13.3
2022-10-31T07:58:18.656Z,13.4
2022-10-31T08:01:06.709Z,13.5
2022-10-31T08:03:54.447Z,13.5
2022-10-31T08:06:42.011Z,13.6
2022-10-31T08:09:29.534Z,13.6
2022-10-31T08:12:17.086Z,13.7
2022-10-31T08:15:05.018Z,13.7
2022-10-31T08:17:53.955Z,13.8
2022-10-31T08:20:41.534Z,13.9
2022-10-31T08:23:29.777Z,13.9
2022-10-31T08:26:17.356Z,14
2022-10-31T08:29:04.886Z,14.1
2022-10-31T08:31:52.398Z,14.1
2022-10-31T08:34:39.899Z,14.1
2022-10-31T08:37:27.376Z,14.2
2022-10-31T08:40:14.958Z,14.3
2022-10-31T08:43:02.763Z,14.3
2022-10-31T08:45:51.803Z,14.3
2022-10-31T08:48:40.676Z,14.4
2022-10-31T08:51:28.269Z,14.4
2022-10-31T08:54:15.915Z,14.5
2022-10-31T08:57:03.494Z,14.6
2022-10-31T08:59:51.019Z,14.7
2022-10-31T09:02:38.958Z,14.8
2022-10-31T09:05:26.759Z,14.8
2022-10-31T09:08:16.977Z,15
2022-10-31T09:11:04.913Z,15
2022-10-31T09:13:52.878Z,15
2022-10-31T09:16:40.384Z,15.1
2022-10-31T09:19:27.961Z,15.1
2022-10-31T09:22:15.849Z,15.1
2022-10-31T09:25:03.573Z,15.2
2022-10-31T09:27:51.802Z,15.2
2022-10-31T09:30:43.150Z,15.3
2022-10-31T09:33:33.342Z,15.5
2022-10-31T09:36:20.889Z,15.6
2022-10-31T09:39:08.451Z,15.7
2022-10-31T09:41:57.288Z,15.8
2022-10-31T09:44:55.360Z,15.8
2022-10-31T09:47:52.618Z,15.9
2022-10-31T09:50:55.941Z,16
2022-10-31T09:53:49.527Z,16.1
2022-10-31T09:56:41.609Z,16.1
2022-10-31T09:59:30.286Z,16.1
2022-10-31T10:02:21.067Z,16.2
2022-10-31T10:05:15.628Z,16.2
2022-10-31T10:08:07.400Z,16.3
2022-10-31T10:11:00.545Z,16.4
2022-10-31T10:14:04.878Z,16.6
2022-10-31T10:17:05.158Z,16.7
2022-10-31T10:20:03.994Z,16.9
2022-10-31T10:23:10.671Z,17.1
2022-10-31T10:26:27.288Z,17.3
2022-10-31T10:29:23.321Z,17.4
2022-10-31T10:32:19.904Z,17.5
2022-10-31T10:35:12.769Z,17.7
2022-10-31T10:38:10.689Z,17.8
2022-10-31T10:41:06.500Z,18
2022-10-31T10:44:02.012Z,18.2
2022-10-31T10:46:54.822Z,18.3
2022-10-31T10:50:19.072Z,18.5
2022-10-31T10:53:12.668Z,18.6
2022-10-31T10:56:21.662Z,18.8
2022-10-31T10:59:22.207Z,18.9
2022-10-31T11:02:10.783Z,19.1
2022-10-31T11:05:04.151Z,19.3
2022-10-31T11:08:04.353Z,19.5
2022-10-31T11:10:53.694Z,19.6
2022-10-31T11:13:47.037Z,19.8
2022-10-31T11:16:41.345Z,20
2022-10-31T11:19:33.224Z,20.1
2022-10-31T11:22:22.083Z,20.3
2022-10-31T11:25:10.689Z,20.4
2022-10-31T11:28:08.216Z,20.6
2022-10-31T11:30:56.229Z,20.7
2022-10-31T11:33:45.981Z,20.8
2022-10-31T11:36:37.302Z,20.9
2022-10-31T11:39:28.863Z,21
2022-10-31T11:42:16.613Z,21.1
2022-10-31T11:45:05.665Z,21.2
2022-10-31T11:48:02.092Z,21.4
2022-10-31T11:51:02.898Z,21.5
2022-10-31T11:53:50.987Z,21.7
2022-10-31T11:56:40.210Z,21.8
2022-10-31T11:59:28.733Z,21.9
2022-10-31T12:02:18.251Z,22
2022-10-31T12:05:06.936Z,22
2022-10-31T12:08:04.751Z,22
2022-10-31T12:10:55.728Z,22
2022-10-31T12:13:59.864Z,22
2022-10-31T12:17:00.554Z,22
2022-10-31T12:19:58.443Z,22
2022-10-31T12:22:57.744Z,22
2022-10-31T12:25:53.411Z,21.9
2022-10-31T12:28:55.126Z,21.9
2022-10-31T12:31:56.066Z,21.8
2022-10-31T12:35:01.464Z,21.8
2022-10-31T12:38:12.755Z,21.8
2022-10-31T12:41:19.663Z,21.7
2022-10-31T12:44:19.536Z,21.8
2022-10-31T12:47:44.080Z,21.7
2022-10-31T12:50:46.733Z,21.7
2022-10-31T12:53:42.245Z,21.7
2022-10-31T12:56:44.820Z,21.7
2022-10-31T12:59:43.123Z,21.7
2022-10-31T13:02:35.255Z,21.8
2022-10-31T13:05:28.494Z,21.8
2022-10-31T13:08:20.163Z,21.8
2022-10-31T13:11:14.740Z,21.8
2022-10-31T13:14:06.360Z,21.9
2022-10-31T13:16:59.268Z,21.9
2022-10-31T13:19:48.319Z,22
2022-10-31T13:22:39.201Z,22
2022-10-31T13:25:31.389Z,22.1
2022-10-31T13:28:25.916Z,22.2
2022-10-31T13:31:22.695Z,22.2
2022-10-31T13:34:11.779Z,22.2
2022-10-31T13:37:10.012Z,22.2
2022-10-31T13:40:04.938Z,22.2
2022-10-31T13:43:04.766Z,22.2
2022-10-31T13:46:01.812Z,22.2
2022-10-31T13:49:09.878Z,22.1
2022-10-31T13:52:25.671Z,22
2022-10-31T13:55:14.866Z,22
2022-10-31T13:58:35.132Z,22
2022-10-31T14:01:23.563Z,22
2022-10-31T14:04:19.098Z,22
2022-10-31T14:07:16.623Z,22.1
2022-10-31T14:10:07.169Z,22.1
2022-10-31T14:13:12.688Z,22.1
2022-10-31T14:16:06.655Z,22.1
2022-10-31T14:19:07.202Z,22.1
2022-10-31T14:22:02.458Z,22
2022-10-31T14:24:50.112Z,21.9
2022-10-31T14:27:37.665Z,21.8
2022-10-31T14:30:33.425Z,21.6
2022-10-31T14:33:22.651Z,21.5
2022-10-31T14:36:18.887Z,21.4
2022-10-31T14:39:15.485Z,21.2
2022-10-31T14:42:10.859Z,21.1
2022-10-31T14:45:18.328Z,20.9
2022-10-31T14:48:16.997Z,20.9
2022-10-31T14:51:27.480Z,20.7
2022-10-31T14:54:22.729Z,20.5
2022-10-31T14:57:16.376Z,20.4
2022-10-31T15:00:08.703Z,20.3
2022-10-31T15:03:09.722Z,20.1
2022-10-31T15:06:01.449Z,20
2022-10-31T15:08:55.976Z,19.9
2022-10-31T15:11:43.640Z,19.7
2022-10-31T15:14:31.226Z,19.6
2022-10-31T15:17:19.127Z,19.5
2022-10-31T15:20:08.221Z,19.3
2022-10-31T15:22:58.719Z,19.2
2022-10-31T15:25:46.964Z,19
2022-10-31T15:28:34.645Z,18.9
2022-10-31T15:31:22.242Z,18.8
2022-10-31T15:34:10.648Z,18.6
2022-10-31T15:37:05.212Z,18.5
2022-10-31T15:39:59.377Z,18.4
2022-10-31T15:43:00.212Z,18.3
2022-10-31T15:45:52.529Z,18.2
2022-10-31T15:48:40.435Z,18.1
2022-10-31T15:51:32.241Z,18
2022-10-31T15:54:22.932Z,17.8
2022-10-31T15:57:11.724Z,17.7
2022-10-31T15:59:59.757Z,17.6
2022-10-31T16:03:07.169Z,17.5
2022-10-31T16:06:10.006Z,17.4
2022-10-31T16:09:07.018Z,17.3
2022-10-31T16:12:08.170Z,17.2
2022-10-31T16:15:01.310Z,17.2
2022-10-31T16:17:54.873Z,17.1
2022-10-31T16:20:45.670Z,17
2022-10-31T16:23:38.223Z,17
2022-10-31T16:26:32.049Z,16.9
2022-10-31T16:29:20.223Z,16.8
2022-10-31T16:32:13.270Z,16.8
2022-10-31T16:35:20.215Z,16.8
2022-10-31T16:38:13.437Z,16.7
2022-10-31T16:41:01.198Z,16.6
2022-10-31T16:43:52.177Z,16.6
2022-10-31T16:46:40.568Z,16.6
2022-10-31T16:49:28.322Z,16.5
2022-10-31T16:52:15.965Z,16.5
2022-10-31T16:55:04.740Z,16.4
2022-10-31T16:57:56.301Z,16.4
2022-10-31T17:00:44.680Z,16.4
2022-10-31T17:03:32.538Z,16.3
2022-10-31T17:06:21.273Z,16.3
2022-10-31T17:09:09.072Z,16.3
2022-10-31T17:11:56.749Z,16.2
2022-10-31T17:14:44.786Z,16.2
2022-10-31T17:17:36.316Z,16.2
2022-10-31T17:20:24.336Z,16.1
2022-10-31T17:23:15.416Z,16.1
2022-10-31T17:26:03.464Z,16.1
2022-10-31T17:28:53.664Z,16.1
2022-10-31T17:31:41.490Z,16.1
2022-10-31T17:34:34.281Z,16.1
2022-10-31T17:37:22.452Z,16
2022-10-31T17:40:10.897Z,16
2022-10-31T17:43:01.256Z,16
2022-10-31T17:45:49.258Z,15.9
2022-10-31T17:48:36.788Z,15.9
2022-10-31T17:51:24.812Z,15.9
2022-10-31T17:54:13.445Z,15.9
2022-10-31T17:57:03.493Z,15.8
2022-10-31T17:59:51.185Z,15.8
2022-10-31T18:02:39.036Z,15.7
2022-10-31T18:05:26.837Z,15.7
2022-10-31T18:08:14.535Z,15.7
2022-10-31T18:11:02.214Z,15.7
2022-10-31T18:13:53.999Z,15.6
2022-10-31T18:16:43.611Z,15.6
2022-10-31T18:19:31.376Z,15.5
2022-10-31T18:22:19.254Z,15.5
2022-10-31T18:25:06.874Z,15.5
2022-10-31T18:27:54.953Z,15.4
2022-10-31T18:30:42.737Z,15.4
2022-10-31T18:33:30.294Z,15.3
2022-10-31T18:36:17.881Z,15.3
2022-10-31T18:39:05.909Z,15.3
2022-10-31T18:41:53.504Z,15.2
2022-10-31T18:44:41.161Z,15.2
2022-10-31T18:47:28.793Z,15.2
2022-10-31T18:50:16.465Z,15.1
2022-10-31T18:53:04.743Z,15.1
2022-10-31T18:55:52.754Z,15.1
2022-10-31T18:58:41.074Z,15.1
2022-10-31T19:01:29.143Z,15.1
2022-10-31T19:04:17.131Z,15
2022-10-31T19:07:04.865Z,15
2022-10-31T19:09:52.684Z,15
2022-10-31T19:12:40.453Z,15
2022-10-31T19:15:28.161Z,14.9
2022-10-31T19:18:16.608Z,14.9
2022-10-31T19:21:04.481Z,14.8
2022-10-31T19:23:53.120Z,14.8
2022-10-31T19:26:41.978Z,14.8
2022-10-31T19:29:29.585Z,14.7
2022-10-31T19:32:17.730Z,14.7
2022-10-31T19:35:05.348Z,14.7
2022-10-31T19:37:54.027Z,14.6
2022-10-31T19:40:41.555Z,14.6
2022-10-31T19:43:29.228Z,14.6
2022-10-31T19:46:27.757Z,14.5
2022-10-31T19:49:21.474Z,14.5
2022-10-31T19:52:09.229Z,14.5
2022-10-31T19:54:56.982Z,14.4
2022-10-31T19:58:00.699Z,14.5
2022-10-31T20:00:49.350Z,14.4
2022-10-31T20:03:37.069Z,14.4
2022-10-31T20:06:26.705Z,14.4
2022-10-31T20:09:16.629Z,14.5
2022-10-31T20:12:04.439Z,14.5
2022-10-31T20:14:52.806Z,14.5
2022-10-31T20:17:40.474Z,14.4
2022-10-31T20:20:28.417Z,14.5
2022-10-31T20:23:17.222Z,14.4
2022-10-31T20:26:05.135Z,14.4
2022-10-31T20:28:56.799Z,14.5
2022-10-31T20:31:46.097Z,14.5
2022-10-31T20:34:33.998Z,14.5
2022-10-31T20:37:21.673Z,14.5
2022-10-31T20:40:09.649Z,14.5
2022-10-31T20:42:57.298Z,14.5
2022-10-31T20:45:46.613Z,14.5
2022-10-31T20:48:34.357Z,14.4
2022-10-31T20:51:22.645Z,14.4
2022-10-31T20:54:13.069Z,14.4
2022-10-31T20:57:02.030Z,14.4
2022-10-31T20:59:49.857Z,14.4
2022-10-31T21:02:38.369Z,14.4
2022-10-31T21:05:27.454Z,14.4
2022-10-31T21:08:15.223Z,14.4
2022-10-31T21:11:02.886Z,14.4
2022-10-31T21:13:53.242Z,14.4
2022-10-31T21:16:41.450Z,14.4
2022-10-31T21:19:29.020Z,14.4
2022-10-31T21:22:16.680Z,14.4
2022-10-31T21:25:04.231Z,14.4
2022-10-31T21:27:53.551Z,14.4
2022-10-31T21:30:41.191Z,14.4
2022-10-31T21:33:30.891Z,14.4
2022-10-31T21:36:18.776Z,14.4
2022-10-31T21:39:06.613Z,14.4
2022-10-31T21:41:55.227Z,14.4
2022-10-31T21:44:42.841Z,14.5
2022-10-31T21:47:30.463Z,14.5
2022-10-31T21:50:18.112Z,14.5
2022-10-31T21:53:05.932Z,14.5
2022-10-31T21:57:12.196Z,14.5
2022-10-31T22:00:00.161Z,14.5
2022-10-31T22:02:51.573Z,14.5
2022-10-31T22:05:39.167Z,14.5
2022-10-31T22:08:27.094Z,14.5
2022-10-31T22:11:14.930Z,14.5
2022-10-31T22:14:03.961Z,14.5
2022-10-31T22:16:52.180Z,14.5
2022-10-31T22:19:39.703Z,14.5
2022-10-31T22:22:27.585Z,14.5
2022-10-31T22:25:15.145Z,14.5
2022-10-31T22:28:03.115Z,14.5
2022-10-31T22:30:52.632Z,14.5
2022-10-31T22:33:40.185Z,14.6
2022-10-31T22:36:28.471Z,14.6
2022-10-31T22:39:16.877Z,14.6
2022-10-31T22:42:05.602Z,14.5
2022-10-31T22:44:53.399Z,14.5
2022-10-31T22:50:29.201Z,14.5
2022-10-31T22:53:17.328Z,14.5
2022-10-31T22:56:04.996Z,14.5
2022-10-31T22:58:54.968Z,14.5
2022-10-31T23:01:43.433Z,14.5
2022-10-31T23:04:31.595Z,14.5
2022-10-31T23:07:23.060Z,14.5
2022-10-31T23:10:12.474Z,14.5
2022-10-31T23:13:00.029Z,14.5
2022-10-31T23:16:19.269Z,14.5
2022-10-31T23:19:06.951Z,14.5
2022-10-31T23:21:57.107Z,14.5
2022-10-31T23:24:48.697Z,14.5
2022-10-31T23:27:36.197Z,14.5
2022-10-31T23:30:23.993Z,14.5
2022-10-31T23:33:12.916Z,14.5
2022-10-31T23:36:00.518Z,14.4
2022-10-31T23:38:48.590Z,14.4
2022-10-31T23:41:37.834Z,14.5
2022-10-31T23:44:25.681Z,14.4
2022-10-31T23:47:13.588Z,14.4
2022-10-31T23:50:02.378Z,14.4
2022-10-31T23:52:52.146Z,14.4
2022-10-31T23:55:39.717Z,14.4
2022-10-31T23:58:27.304Z,14.4
